Relevés horaires Koksijde (Belgique)


Relevés horaires à Koksijde - Vendredi 01 Mai 2026
Heure UTC1 Température [°C] Vent [km/h] Hum. [%] Pres.4 [hPa] Visi. [Km] Nébu. [octa] Préc.5 [mm] Cond.
2m. Res. Ros. Dir.2 Vit. Moy. Raf.3
23:00 13.5 13.5 7.9 NNO 1.9 -- 9.3 69 1020.1(-0.2/3h) 14 -- -- --
22:00 14.1 14.1 7.2 OSO 5.6 -- 9.3 63 1020.8(0.7/3h) 15 -- -- --
21:00 13.5 13.5 6.3 NNO 1.9 -- 7.4 62 1020.5(0.4/3h) 16 -- -- --
20:00 14.1 14.1 6.3 NNO 1.9 -- 3.7 59 1020.3(0.2/3h) >70 -- -- --
19:00 16.0 16.0 6.8 NNO 1.9 -- 7.4 54 1020.1(-0.3/3h) >70 -- -- --
18:00 17.4 17.4 7.6 NO 5.6 -- 16.7 53 1020.1(-0.3/3h) >70 -- -- --
17:00 18.6 18.6 5.8 NO 5.6 -- 13.0 43 1020.2(-0.5/3h) >70 -- -- --
16:00 19.6 19.6 8.0 O 9.3 -- 14.8 47 1020.3(-0.8/3h) >70 -- -- --
15:00 25.2 25.2 4.9 S 7.4 -- 16.7 27 1020.5(-1.1/3h) >70 -- -- --
14:00 24.5 24.5 3.5 S 9.3 -- 14.8 26 1020.7(-1.2/3h) >70 -- -- --
13:00 23.4 23.4 3.6 SSE 9.3 -- 16.7 27 1021.2(-1.3/3h) >70 -- -- --
12:00 23.3 23.3 4.4 SSE 9.3 -- 16.7 29 1021.6(-0.9/3h) >70 -- -- --
11:00 20.8 20.8 4.0 SSE 9.3 -- 16.7 33 1022(-0.7/3h) >70 -- -- --
10:00 19.2 19.2 1.7 SSE 7.4 -- 14.8 31 1022.5(-0.1/3h) >70 -- -- --
09:00 17.7 17.7 1.0 SSE 9.3 -- 14.8 32 1022.5(-0.2/3h) >70 -- -- --
08:00 14.6 14.2 -0.7 SSE 9.3 -- 14.8 35 1022.7(0.2/3h) >70 -- -- --
07:00 12.1 11.6 0.2 ESE 7.4 -- 11.1 44 1022.7(0.1/3h) >70 -- -- --
06:00 8.5 8.5 0.9 E 3.7 -- 7.4 59 1022.7(-0.1/3h) >70 -- -- --
05:00 4.8 4.8 -1.3 ESE 3.7 -- 5.6 65 1022.5(-0.3/3h) >70 -- -- --
04:00 4.6 4.6 -1.3 E 3.7 -- 5.6 65 1022.6(-0.5/3h) >70 -- -- --
03:00 5.7 5.7 -1.3 NNO 1.9 -- 7.4 61 1022.8(-0.3/3h) >70 -- -- --
02:00 5.8 4.8 -0.8 E 5.6 -- 7.4 62 1022.8(-0.2/3h) >70 -- -- --
01:00 6.0 5 -0.5 ESE 5.6 -- 5.6 63 1023.1(0.1/3h) >70 -- -- --
00:00 7.5 6.7 -0.8 ESE 5.6 -- 14.8 56 1023.2(0.4/3h) >70 -- -- --

1 Coordinated Universal Time. Actuellement il est 16:00 locale et 14:00 UTC.

2 Le vent souffle depuis la direction indiquée vers la direction oposée.

3 Les rafales max. sont disponible 40 min après l'heure du relevé.

4 Pour les stations d'altitude (plus de 600m) le géopotentiel du niveau le plus proche de la pression obligatoire est indiqué.

5 Les stations disposant d'un diffuseur peuvent indiquer "trace". Cela signifie que des précipitations ont touchés le sol mais que la quantité est inférieure à 0.1 mm.

Récapitulatif de la journée
Température [°C] Vent [km/h] Ensoleillement4 [h] Precipitations totale5 [mm] Pression [Hpa]
Min1 Max.2 Moy.3 Max. Min Max.
4.1 25.3 0 16.7 0 h 0 min 0 1020.1 1023.2

1 Température minimale relevée entre 18:00 UTC la veille et 18:00 UTC le jour donné.

2 Température maximale relevée entre 06:00 UTC le jour donné et 06:00 UTC le lendemain.

3 Vent moyen de la journée basé sur les relevés horaires.

4 Ensoleillement en heures relevé entre 06:00 UTC la veille et 06:00 UTC le jour donné.

5 Précipitations totales tombées entre 06:00 UTC la jour donné et 06:00 UTC le lendemain.

Graphiques horaires